createdAt,value
2017-12-13T00:02:03.372Z,-0.52
2017-12-13T00:04:31.634Z,-0.57
2017-12-13T00:06:59.880Z,-0.60
2017-12-13T00:09:28.919Z,-0.55
2017-12-13T00:11:57.178Z,-0.58
2017-12-13T00:14:25.441Z,-0.58
2017-12-13T00:16:53.729Z,-0.55
2017-12-13T00:19:21.955Z,-0.46
2017-12-13T00:21:50.197Z,-0.40
2017-12-13T00:24:18.462Z,-0.51
2017-12-13T00:26:46.718Z,-0.53
2017-12-13T00:29:14.985Z,-0.45
2017-12-13T00:31:44.018Z,-0.36
2017-12-13T00:34:12.284Z,-0.36
2017-12-13T00:36:40.530Z,-0.29
2017-12-13T00:39:09.565Z,-0.24
2017-12-13T00:41:37.826Z,-0.21
2017-12-13T00:44:06.077Z,-0.18
2017-12-13T00:46:34.341Z,-0.10
2017-12-13T00:49:03.362Z,-0.15
2017-12-13T00:51:31.625Z,-0.06
2017-12-13T00:53:59.878Z,-0.03
2017-12-13T00:56:28.940Z,-0.06
2017-12-13T00:58:57.190Z,-0.04
2017-12-13T01:01:25.444Z,-0.01
2017-12-13T01:03:53.698Z,0.02
2017-12-13T01:06:22.734Z,-0.09
2017-12-13T01:08:50.990Z,-0.12
2017-12-13T01:11:19.255Z,-0.15
2017-12-13T01:13:48.270Z,-0.10
2017-12-13T01:16:16.533Z,-0.07
2017-12-13T01:18:44.793Z,-0.04
2017-12-13T01:21:13.836Z,-0.03
2017-12-13T01:23:42.093Z,-0.02
2017-12-13T01:26:10.345Z,0.06
2017-12-13T01:28:39.362Z,0.03
2017-12-13T01:31:07.627Z,0.08
2017-12-13T01:33:35.878Z,0.03
2017-12-13T01:36:04.898Z,0.13
2017-12-13T01:38:33.154Z,0.06
2017-12-13T01:41:02.178Z,0.09
2017-12-13T01:43:30.421Z,0.10
2017-12-13T01:45:59.446Z,0.05
2017-12-13T01:48:27.686Z,0.09
2017-12-13T01:50:56.710Z,0.04
2017-12-13T01:53:24.958Z,0.03
2017-12-13T01:55:53.976Z,0.07
2017-12-13T01:58:22.221Z,0.03
2017-12-13T02:00:51.254Z,0.07
2017-12-13T02:03:19.508Z,0.17
2017-12-13T02:05:47.760Z,0.10
2017-12-13T02:08:16.786Z,0.20
2017-12-13T02:10:45.047Z,0.20
2017-12-13T02:13:14.070Z,0.25
2017-12-13T02:15:42.322Z,0.21
2017-12-13T02:18:10.663Z,0.26
2017-12-13T02:20:38.920Z,0.27
2017-12-13T02:25:40.809Z,0.28
2017-12-13T02:28:09.068Z,0.30
2017-12-13T02:30:37.325Z,0.40
2017-12-13T02:33:05.575Z,0.47
2017-12-13T02:35:33.831Z,0.43
2017-12-13T02:38:02.841Z,0.48
2017-12-13T02:40:49.629Z,0.51
2017-12-13T02:43:18.641Z,0.56
2017-12-13T02:45:47.663Z,0.62
2017-12-13T02:48:15.907Z,0.64
2017-12-13T02:50:44.927Z,0.68
2017-12-13T02:53:13.176Z,0.72
2017-12-13T02:55:42.198Z,0.62
2017-12-13T02:58:10.448Z,0.60
2017-12-13T03:00:39.464Z,0.64
2017-12-13T03:03:07.705Z,0.59
2017-12-13T03:05:36.722Z,0.58
2017-12-13T03:08:04.969Z,0.57
2017-12-13T03:10:33.986Z,0.54
2017-12-13T03:13:02.241Z,0.58
2017-12-13T03:15:31.256Z,0.59
2017-12-13T03:17:59.513Z,0.63
2017-12-13T03:20:28.528Z,0.67
2017-12-13T03:22:56.781Z,0.66
2017-12-13T03:25:25.812Z,0.65
2017-12-13T03:27:54.058Z,0.61
2017-12-13T03:30:23.087Z,0.63
2017-12-13T03:32:51.337Z,0.61
2017-12-13T03:35:19.581Z,0.57
2017-12-13T03:37:47.837Z,0.58
2017-12-13T03:40:16.083Z,0.52
2017-12-13T03:42:44.342Z,0.50
2017-12-13T03:45:12.581Z,0.46
2017-12-13T03:47:40.838Z,0.44
2017-12-13T03:50:09.085Z,0.44
2017-12-13T03:52:37.335Z,0.49
2017-12-13T03:55:05.585Z,0.47
2017-12-13T03:57:34.615Z,0.41
2017-12-13T04:00:02.856Z,0.42
2017-12-13T04:02:31.878Z,0.43
2017-12-13T04:05:00.130Z,0.41
2017-12-13T04:07:29.148Z,0.31
2017-12-13T04:09:57.397Z,0.39
2017-12-13T04:12:26.432Z,0.39
2017-12-13T04:14:54.677Z,0.35
2017-12-13T04:17:23.694Z,0.38
2017-12-13T04:19:51.950Z,0.37
2017-12-13T04:22:20.208Z,0.41
2017-12-13T04:24:48.462Z,0.32
2017-12-13T04:27:16.714Z,0.32
2017-12-13T04:29:44.965Z,0.31
2017-12-13T04:32:13.218Z,0.31
2017-12-13T04:34:42.248Z,0.29
2017-12-13T04:37:10.493Z,0.20
2017-12-13T04:39:39.506Z,0.12
2017-12-13T04:42:07.756Z,0.13
2017-12-13T04:44:36.775Z,0.01
2017-12-13T04:47:05.039Z,0.09
2017-12-13T04:49:33.298Z,0.05
2017-12-13T04:52:02.326Z,-0.02
2017-12-13T04:54:30.578Z,0.06
2017-12-13T04:56:58.856Z,-0.05
2017-12-13T04:59:27.870Z,-0.13
2017-12-13T05:01:56.137Z,-0.12
2017-12-13T05:04:24.400Z,-0.13
2017-12-13T05:06:52.673Z,-0.15
2017-12-13T05:09:21.695Z,-0.09
2017-12-13T05:11:49.958Z,-0.19
2017-12-13T05:14:18.218Z,-0.16
2017-12-13T05:16:46.487Z,-0.16
2017-12-13T05:19:15.522Z,-0.15
2017-12-13T05:21:43.786Z,-0.18
2017-12-13T05:24:12.050Z,-0.13
2017-12-13T05:26:40.314Z,-0.18
2017-12-13T05:29:08.562Z,-0.16
2017-12-13T05:31:36.831Z,-0.15
2017-12-13T05:34:05.090Z,-0.11
2017-12-13T05:36:33.358Z,-0.12
2017-12-13T05:39:01.609Z,-0.18
2017-12-13T05:41:29.874Z,-0.29
2017-12-13T05:43:58.132Z,-0.28
2017-12-13T05:46:27.148Z,-0.19
2017-12-13T05:48:55.405Z,-0.26
2017-12-13T05:51:24.440Z,-0.16
2017-12-13T05:53:52.707Z,-0.10
2017-12-13T05:56:20.972Z,-0.10
2017-12-13T05:58:49.218Z,-0.02
2017-12-13T06:01:18.287Z,0.09
2017-12-13T06:03:46.526Z,0.06
2017-12-13T06:06:14.782Z,0.14
2017-12-13T06:08:43.040Z,0.18
2017-12-13T06:11:12.049Z,0.28
2017-12-13T06:13:40.314Z,0.38
2017-12-13T06:16:09.331Z,0.30
2017-12-13T06:18:37.584Z,0.44
2017-12-13T06:21:06.596Z,0.36
2017-12-13T06:23:34.883Z,0.45
2017-12-13T06:26:03.136Z,0.48
2017-12-13T06:28:32.155Z,0.48
2017-12-13T06:31:00.397Z,0.41
2017-12-13T06:33:29.429Z,0.46
2017-12-13T06:35:57.673Z,0.52
2017-12-13T06:38:26.713Z,0.49
2017-12-13T06:40:54.956Z,0.62
2017-12-13T06:43:23.202Z,0.58
2017-12-13T06:45:52.230Z,0.61
2017-12-13T06:48:20.474Z,0.68
2017-12-13T06:50:49.500Z,0.67
2017-12-13T06:53:17.759Z,0.72
2017-12-13T06:55:46.009Z,0.73
2017-12-13T06:58:15.022Z,0.73
2017-12-13T07:00:43.285Z,0.73
2017-12-13T07:03:12.299Z,0.81
2017-12-13T07:05:40.549Z,0.81
2017-12-13T07:08:09.566Z,0.88
2017-12-13T07:10:37.821Z,0.83
2017-12-13T07:13:06.842Z,0.87
2017-12-13T07:15:35.111Z,0.86
2017-12-13T07:18:03.363Z,0.87
2017-12-13T07:20:32.377Z,0.87
2017-12-13T07:23:00.633Z,0.90
2017-12-13T07:25:29.651Z,0.91
2017-12-13T07:27:57.920Z,0.96
2017-12-13T07:30:26.914Z,0.95
2017-12-13T07:32:55.206Z,0.99
2017-12-13T07:35:25.110Z,0.95
2017-12-13T07:37:53.371Z,1.00
2017-12-13T07:40:21.615Z,1.03
2017-12-13T07:42:49.951Z,1.06
2017-12-13T07:45:18.153Z,1.09
2017-12-13T07:47:47.196Z,1.10
2017-12-13T07:50:15.450Z,1.15
2017-12-13T07:52:44.461Z,1.18
2017-12-13T07:55:12.731Z,1.23
2017-12-13T07:57:41.746Z,1.29
2017-12-13T08:00:10.026Z,1.31
2017-12-13T08:02:38.268Z,1.32
2017-12-13T08:05:06.534Z,1.31
2017-12-13T08:07:34.792Z,1.37
2017-12-13T08:10:03.042Z,1.37
2017-12-13T08:12:31.298Z,1.48
2017-12-13T08:14:59.559Z,1.49
2017-12-13T08:17:27.815Z,1.44
2017-12-13T08:19:56.851Z,1.51
2017-12-13T08:22:25.116Z,1.54
2017-12-13T08:24:53.371Z,1.52
2017-12-13T08:27:22.401Z,1.47
2017-12-13T08:29:50.655Z,1.49
2017-12-13T08:32:18.902Z,1.51
2017-12-13T08:34:47.145Z,1.56
2017-12-13T08:37:15.406Z,1.60
2017-12-13T08:39:43.658Z,1.66
2017-12-13T08:42:11.929Z,1.75
2017-12-13T08:44:40.943Z,1.79
2017-12-13T08:47:09.193Z,1.77
2017-12-13T08:49:37.451Z,1.76
2017-12-13T08:52:06.475Z,1.76
2017-12-13T08:54:34.730Z,1.72
2017-12-13T08:57:02.996Z,1.90
2017-12-13T08:59:31.246Z,1.87
2017-12-13T09:01:59.504Z,1.91
2017-12-13T09:04:27.765Z,1.91
2017-12-13T09:06:56.016Z,1.91
2017-12-13T09:09:24.283Z,1.89
2017-12-13T09:11:52.539Z,1.95
2017-12-13T09:14:20.802Z,2.03
2017-12-13T09:16:49.042Z,2.04
2017-12-13T09:19:17.368Z,2.12
2017-12-13T09:21:45.595Z,2.24
2017-12-13T09:24:13.860Z,2.41
2017-12-13T09:26:42.180Z,2.58
2017-12-13T09:29:11.144Z,2.68
2017-12-13T09:31:39.406Z,2.84
2017-12-13T09:34:07.658Z,2.82
2017-12-13T09:36:36.668Z,2.80
2017-12-13T09:39:04.960Z,2.91
2017-12-13T09:41:33.213Z,3.12
2017-12-13T09:44:01.461Z,3.21
2017-12-13T09:46:29.701Z,3.26
2017-12-13T09:48:58.722Z,3.32
2017-12-13T09:51:26.980Z,3.42
2017-12-13T09:53:55.236Z,3.30
2017-12-13T09:56:23.495Z,3.35
2017-12-13T09:58:51.747Z,3.27
2017-12-13T10:01:20.004Z,3.23
2017-12-13T10:03:48.254Z,3.38
2017-12-13T10:06:16.518Z,3.35
2017-12-13T10:08:44.772Z,3.35
2017-12-13T10:11:13.022Z,3.35
2017-12-13T10:13:42.045Z,3.32
2017-12-13T10:16:10.285Z,3.58
2017-12-13T10:18:38.538Z,3.66
2017-12-13T10:21:06.792Z,3.69
2017-12-13T10:23:35.037Z,3.86
2017-12-13T10:26:03.299Z,3.91
2017-12-13T10:28:32.318Z,3.99
2017-12-13T10:31:00.570Z,3.97
2017-12-13T10:33:29.578Z,3.75
2017-12-13T10:35:57.840Z,3.90
2017-12-13T10:38:26.844Z,3.90
2017-12-13T10:40:55.107Z,3.82
2017-12-13T10:43:24.110Z,3.89
2017-12-13T10:45:52.381Z,4.54
2017-12-13T10:48:21.402Z,5.39
2017-12-13T10:50:49.662Z,4.95
2017-12-13T10:53:17.922Z,5.35
2017-12-13T10:55:46.927Z,5.17
2017-12-13T10:58:15.182Z,4.94
2017-12-13T11:00:44.191Z,4.65
2017-12-13T11:03:12.445Z,5.25
2017-12-13T11:05:41.463Z,4.79
2017-12-13T11:08:09.714Z,5.23
2017-12-13T11:10:37.958Z,4.86
2017-12-13T11:13:06.219Z,5.41
2017-12-13T11:15:34.485Z,5.35
2017-12-13T11:18:02.743Z,4.59
2017-12-13T11:20:30.995Z,4.61
2017-12-13T11:22:59.241Z,5.07
2017-12-13T11:25:27.500Z,5.59
2017-12-13T11:27:55.742Z,5.03
2017-12-13T11:30:23.996Z,5.30
2017-12-13T11:32:52.246Z,5.04
2017-12-13T11:35:20.511Z,5.31
2017-12-13T11:37:48.770Z,5.05
2017-12-13T11:40:17.008Z,5.22
2017-12-13T11:42:46.033Z,5.81
2017-12-13T11:45:14.269Z,5.78
2017-12-13T11:47:42.526Z,5.79
2017-12-13T11:50:10.779Z,5.46
2017-12-13T11:52:39.034Z,5.40
2017-12-13T11:55:07.277Z,5.16
2017-12-13T11:57:36.294Z,5.95
2017-12-13T12:00:04.545Z,4.80
2017-12-13T12:02:33.570Z,4.64
2017-12-13T12:05:01.824Z,4.60
2017-12-13T12:07:30.068Z,4.78
2017-12-13T12:09:58.309Z,5.13
2017-12-13T12:12:27.336Z,4.96
2017-12-13T12:14:55.592Z,4.78
2017-12-13T12:17:23.864Z,4.92
2017-12-13T12:19:52.121Z,4.87
2017-12-13T12:22:20.365Z,4.83
2017-12-13T12:24:48.630Z,4.74
2017-12-13T12:27:17.646Z,4.76
2017-12-13T12:29:45.892Z,4.73
2017-12-13T12:32:14.918Z,4.78
2017-12-13T12:34:43.179Z,4.61
2017-12-13T12:37:11.435Z,4.62
2017-12-13T12:39:40.448Z,4.95
2017-12-13T12:42:09.454Z,4.73
2017-12-13T12:44:37.735Z,4.73
2017-12-13T12:47:05.978Z,4.80
2017-12-13T12:49:34.998Z,4.74
2017-12-13T12:52:03.252Z,4.70
2017-12-13T12:54:32.276Z,4.69
2017-12-13T12:57:00.523Z,4.77
2017-12-13T12:59:28.773Z,4.83
2017-12-13T13:01:57.021Z,4.64
2017-12-13T13:04:25.281Z,4.65
2017-12-13T13:06:53.520Z,4.63
2017-12-13T13:09:22.546Z,4.56
2017-12-13T13:11:50.776Z,4.69
2017-12-13T13:14:19.046Z,4.66
2017-12-13T13:16:47.291Z,4.74
2017-12-13T13:19:15.539Z,4.60
2017-12-13T13:21:43.831Z,4.70
2017-12-13T13:24:12.125Z,4.61
2017-12-13T13:26:40.384Z,4.60
2017-12-13T13:29:08.622Z,4.49
2017-12-13T13:31:36.890Z,4.53
2017-12-13T13:34:05.945Z,4.52
2017-12-13T13:36:34.203Z,4.49
2017-12-13T13:39:02.454Z,4.47
2017-12-13T13:41:30.707Z,4.48
2017-12-13T13:43:58.958Z,4.46
2017-12-13T13:46:27.262Z,4.42
2017-12-13T13:48:56.274Z,4.41
2017-12-13T13:51:24.527Z,4.41
2017-12-13T13:53:53.552Z,4.41
2017-12-13T13:56:21.803Z,4.42
2017-12-13T13:58:50.047Z,4.36
2017-12-13T14:01:18.300Z,4.36
2017-12-13T14:03:46.545Z,4.38
2017-12-13T14:06:15.574Z,4.41
2017-12-13T14:08:43.867Z,4.44
2017-12-13T14:11:12.113Z,4.42
2017-12-13T14:13:40.390Z,4.44
2017-12-13T14:16:08.638Z,4.47
2017-12-13T14:18:37.109Z,4.41
2017-12-13T14:21:05.407Z,4.41
2017-12-13T14:23:33.681Z,4.44
2017-12-13T14:26:01.921Z,4.43
2017-12-13T14:28:30.947Z,4.41
2017-12-13T14:30:59.250Z,4.44
2017-12-13T14:33:27.543Z,4.48
2017-12-13T14:35:55.832Z,4.45
2017-12-13T14:38:24.083Z,4.44
2017-12-13T14:40:52.329Z,4.45
2017-12-13T14:43:20.614Z,4.50
2017-12-13T14:45:48.863Z,4.45
2017-12-13T14:48:17.113Z,4.41
2017-12-13T14:50:45.367Z,4.42
2017-12-13T14:53:13.659Z,4.46
2017-12-13T14:55:41.923Z,4.43
2017-12-13T14:58:10.182Z,4.45
2017-12-13T15:00:38.453Z,4.43
2017-12-13T15:03:06.706Z,4.42
2017-12-13T15:05:34.962Z,4.37
2017-12-13T15:08:03.215Z,4.36
2017-12-13T15:10:31.523Z,4.34
2017-12-13T15:12:59.824Z,4.27
2017-12-13T15:15:28.098Z,4.10
2017-12-13T15:17:56.358Z,3.93
2017-12-13T15:20:24.613Z,3.86
2017-12-13T15:22:54.196Z,3.77
2017-12-13T15:25:22.460Z,3.76
2017-12-13T15:27:50.765Z,3.64
2017-12-13T15:30:19.789Z,3.62
2017-12-13T15:32:48.039Z,3.62
2017-12-13T15:35:17.103Z,3.62
2017-12-13T15:37:45.398Z,3.68
2017-12-13T15:40:13.684Z,3.69
2017-12-13T15:42:41.931Z,3.59
2017-12-13T15:45:10.215Z,3.39
2017-12-13T15:47:38.506Z,3.19
2017-12-13T15:50:07.568Z,2.94
2017-12-13T15:52:35.815Z,2.82
2017-12-13T15:55:04.094Z,2.79
2017-12-13T15:57:32.485Z,2.70
2017-12-13T16:00:00.796Z,2.63
2017-12-13T16:02:29.086Z,2.55
2017-12-13T16:04:57.346Z,2.44
2017-12-13T16:07:25.637Z,2.43
2017-12-13T16:09:53.887Z,2.29
2017-12-13T16:12:22.198Z,2.22
2017-12-13T16:14:50.496Z,2.14
2017-12-13T16:17:18.810Z,2.08
2017-12-13T16:19:47.103Z,2.06
2017-12-13T16:22:15.387Z,1.97
2017-12-13T16:24:43.682Z,1.92
2017-12-13T16:27:13.727Z,1.96
2017-12-13T16:29:42.023Z,1.90
2017-12-13T16:32:10.317Z,1.86
2017-12-13T16:34:38.614Z,1.88
2017-12-13T16:37:06.899Z,1.79
2017-12-13T16:39:35.965Z,1.69
2017-12-13T16:42:04.229Z,1.66
2017-12-13T16:47:07.092Z,1.66
2017-12-13T16:49:35.384Z,1.59
2017-12-13T16:52:03.656Z,1.57
2017-12-13T16:54:31.979Z,1.58
2017-12-13T16:57:00.289Z,1.63
2017-12-13T16:59:28.613Z,1.65
2017-12-13T17:01:56.927Z,1.64
2017-12-13T17:04:25.977Z,1.64
2017-12-13T17:06:54.297Z,1.62
2017-12-13T17:09:23.345Z,1.62
2017-12-13T17:11:51.655Z,1.59
2017-12-13T17:14:20.901Z,1.60
2017-12-13T17:16:49.203Z,1.57
2017-12-13T17:19:17.499Z,1.52
2017-12-13T17:21:45.781Z,1.43
2017-12-13T17:24:14.026Z,1.43
2017-12-13T17:26:42.278Z,1.41
2017-12-13T17:29:10.540Z,1.36
2017-12-13T17:31:38.833Z,1.37
2017-12-13T17:34:07.084Z,1.35
2017-12-13T17:36:35.375Z,1.33
2017-12-13T17:39:03.659Z,1.33
2017-12-13T17:41:31.938Z,1.32
2017-12-13T17:44:00.234Z,1.30
2017-12-13T17:46:29.276Z,1.27
2017-12-13T17:48:58.342Z,1.31
2017-12-13T17:51:26.578Z,1.34
2017-12-13T17:53:54.842Z,1.37
2017-12-13T17:56:23.132Z,1.39
2017-12-13T17:58:51.428Z,1.38
2017-12-13T18:01:19.670Z,1.49
2017-12-13T18:03:47.930Z,1.50
2017-12-13T18:06:16.177Z,1.51
2017-12-13T18:08:45.245Z,1.55
2017-12-13T18:11:13.480Z,1.55
2017-12-13T18:13:41.740Z,1.55
2017-12-13T18:16:09.998Z,1.56
2017-12-13T18:18:39.071Z,1.60
2017-12-13T18:21:07.310Z,1.61
2017-12-13T18:23:35.557Z,1.66
2017-12-13T18:26:04.628Z,1.63
2017-12-13T18:28:32.916Z,1.67
2017-12-13T18:31:01.209Z,1.69
2017-12-13T18:33:30.264Z,1.78
2017-12-13T18:35:58.567Z,1.76
2017-12-13T18:38:26.802Z,1.77
2017-12-13T18:40:55.067Z,1.85
2017-12-13T18:43:23.330Z,1.83
2017-12-13T18:45:52.433Z,1.83
2017-12-13T18:48:20.721Z,1.90
2017-12-13T18:50:49.009Z,1.88
2017-12-13T18:53:17.270Z,1.97
2017-12-13T18:55:45.552Z,2.01
2017-12-13T18:58:13.852Z,2.02
2017-12-13T19:00:44.648Z,2.07
2017-12-13T19:03:12.965Z,2.13
2017-12-13T19:05:41.289Z,2.15
2017-12-13T19:08:09.588Z,2.20
2017-12-13T19:10:37.922Z,2.24
2017-12-13T19:13:06.991Z,2.24
2017-12-13T19:15:35.292Z,2.21
2017-12-13T19:18:03.591Z,2.26
2017-12-13T19:20:32.656Z,2.31
2017-12-13T19:23:00.958Z,2.35
2017-12-13T19:25:30.035Z,2.24
2017-12-13T19:27:59.975Z,2.32
2017-12-13T19:30:28.258Z,2.35
2017-12-13T19:32:56.573Z,2.40
2017-12-13T19:35:24.903Z,2.48
2017-12-13T19:37:53.940Z,2.56
2017-12-13T19:40:22.273Z,2.58
2017-12-13T19:42:51.320Z,2.61
2017-12-13T19:45:19.631Z,2.65
2017-12-13T19:47:47.905Z,2.71
2017-12-13T19:50:16.174Z,2.72
2017-12-13T19:52:44.469Z,2.75
2017-12-13T19:55:13.523Z,2.80
2017-12-13T19:57:41.820Z,2.78
2017-12-13T20:00:10.062Z,2.88
2017-12-13T20:02:38.377Z,2.93
2017-12-13T20:05:07.767Z,2.93
2017-12-13T20:07:36.006Z,2.94
2017-12-13T20:10:04.307Z,3.00
2017-12-13T20:12:32.600Z,3.03
2017-12-13T20:15:15.693Z,3.01
2017-12-13T20:17:43.985Z,3.07
2017-12-13T20:20:12.997Z,3.07
2017-12-13T20:22:42.068Z,3.09
2017-12-13T20:25:10.390Z,3.09
2017-12-13T20:27:39.473Z,3.10
2017-12-13T20:30:07.745Z,3.07
2017-12-13T20:32:36.052Z,3.12
2017-12-13T20:35:05.093Z,3.15
2017-12-13T20:37:33.397Z,3.19
2017-12-13T20:40:01.696Z,3.20
2017-12-13T20:42:30.745Z,3.21
2017-12-13T20:44:59.043Z,3.29
2017-12-13T20:47:27.275Z,3.33
2017-12-13T20:49:55.595Z,3.33
2017-12-13T20:52:23.875Z,3.42
2017-12-13T20:54:52.179Z,3.40
2017-12-13T20:57:20.487Z,3.52
2017-12-13T20:59:48.781Z,3.50
2017-12-13T21:02:17.061Z,3.49
2017-12-13T21:04:45.362Z,3.55
2017-12-13T21:07:15.018Z,3.59
2017-12-13T21:09:43.334Z,3.63
2017-12-13T21:12:11.654Z,3.73
2017-12-13T21:14:39.973Z,3.67
2017-12-13T21:17:08.293Z,3.77
2017-12-13T21:19:37.378Z,3.75
2017-12-13T21:22:05.668Z,3.78
2017-12-13T21:24:34.733Z,3.91
2017-12-13T21:27:03.002Z,3.97
2017-12-13T21:29:31.284Z,4.10
2017-12-13T21:32:00.332Z,4.13
2017-12-13T21:34:28.624Z,4.05
2017-12-13T21:36:56.915Z,4.08
2017-12-13T21:39:25.194Z,4.12
2017-12-13T21:41:53.585Z,4.25
2017-12-13T21:44:21.816Z,4.26
2017-12-13T21:46:50.112Z,4.31
2017-12-13T21:49:18.387Z,4.29
2017-12-13T21:51:46.682Z,4.33
2017-12-13T21:54:14.960Z,4.34
2017-12-13T21:56:43.253Z,4.36
2017-12-13T21:59:11.524Z,4.49
2017-12-13T22:01:39.834Z,4.41
2017-12-13T22:04:08.068Z,4.41
2017-12-13T22:06:36.317Z,4.50
2017-12-13T22:09:04.638Z,4.49
2017-12-13T22:11:32.930Z,4.53
2017-12-13T22:14:01.980Z,4.44
2017-12-13T22:16:30.233Z,4.35
2017-12-13T22:18:58.512Z,4.43
2017-12-13T22:21:26.788Z,4.40
2017-12-13T22:23:55.067Z,4.33
2017-12-13T22:26:23.349Z,4.34
2017-12-13T22:28:51.641Z,4.33
2017-12-13T22:31:20.002Z,4.23
2017-12-13T22:33:48.252Z,4.18
2017-12-13T22:36:16.606Z,4.18
2017-12-13T22:38:44.958Z,4.05
2017-12-13T22:41:13.244Z,3.95
2017-12-13T22:43:41.522Z,3.91
2017-12-13T22:46:09.919Z,-145.26
2017-12-13T22:48:39.030Z,-145.26
2017-12-13T22:51:07.361Z,-145.26
2017-12-13T22:53:35.688Z,-145.26
2017-12-13T22:56:04.015Z,-145.26
2017-12-13T22:58:32.331Z,-145.26
2017-12-13T23:01:41.636Z,-145.26
2017-12-13T23:04:25.096Z,-145.26
2017-12-13T23:06:53.556Z,-145.26
2017-12-13T23:09:45.581Z,-145.26
2017-12-13T23:12:13.949Z,-145.26
2017-12-13T23:14:42.288Z,-145.26
2017-12-13T23:17:10.576Z,-145.26
2017-12-13T23:19:38.831Z,-145.26
2017-12-13T23:22:07.110Z,-145.26
2017-12-13T23:24:35.375Z,-145.26
2017-12-13T23:27:03.653Z,-145.26
2017-12-13T23:29:31.928Z,-145.26
2017-12-13T23:32:00.269Z,-145.26
2017-12-13T23:34:29.316Z,-145.26
2017-12-13T23:36:57.651Z,-145.26
2017-12-13T23:39:26.863Z,-145.26
2017-12-13T23:41:55.190Z,-145.26
2017-12-13T23:44:23.521Z,-145.26
2017-12-13T23:46:52.680Z,-145.26
2017-12-13T23:49:20.941Z,-145.26
2017-12-13T23:51:49.866Z,-145.26
2017-12-13T23:54:19.024Z,-145.26
2017-12-13T23:56:47.364Z,-145.26
2017-12-13T23:59:15.723Z,-145.26
